createdAt,value
2022-09-12T00:04:16.021Z,1.85
2022-09-12T00:09:17.499Z,2.38
2022-09-12T00:14:19.059Z,2.60
2022-09-12T00:19:20.571Z,2.65
2022-09-12T00:24:22.233Z,3.03
2022-09-12T00:29:23.742Z,3.22
2022-09-12T00:34:25.259Z,1.73
2022-09-12T00:39:26.750Z,2.00
2022-09-12T00:44:28.320Z,2.13
2022-09-12T00:49:32.724Z,1.10
2022-09-12T00:54:43.964Z,1.52
2022-09-12T00:59:48.714Z,2.65
2022-09-12T01:04:50.209Z,1.73
2022-09-12T01:09:51.728Z,2.38
2022-09-12T01:14:53.207Z,2.28
2022-09-12T01:20:13.455Z,1.60
2022-09-12T01:25:33.925Z,2.13
2022-09-12T01:30:49.755Z,1.85
2022-09-12T01:36:04.540Z,2.05
2022-09-12T01:41:21.257Z,1.83
2022-09-12T01:46:33.184Z,2.78
2022-09-12T01:51:39.736Z,2.30
2022-09-12T01:56:41.595Z,1.80
2022-09-12T02:01:56.034Z,1.58
2022-09-12T02:07:03.735Z,2.53
2022-09-12T02:12:05.907Z,3.65
2022-09-12T02:17:12.220Z,3.17
2022-09-12T02:22:16.039Z,2.95
2022-09-12T02:27:37.897Z,2.35
2022-09-12T02:32:48.915Z,2.03
2022-09-12T02:38:00.962Z,2.33
2022-09-12T02:43:03.271Z,1.83
2022-09-12T02:48:08.414Z,2.33
2022-09-12T02:53:09.888Z,2.85
2022-09-12T02:58:13.638Z,2.10
2022-09-12T03:03:43.174Z,2.05
2022-09-12T03:08:57.315Z,2.85
2022-09-12T03:14:21.272Z,3.88
2022-09-12T03:19:45.166Z,3.17
2022-09-12T03:25:04.658Z,2.92
2022-09-12T03:30:06.729Z,3.45
2022-09-12T03:40:10.488Z,3.95
2022-09-12T03:45:12.117Z,5.45
2022-09-12T03:50:13.594Z,3.75
2022-09-12T03:55:15.238Z,3.47
2022-09-12T04:00:19.838Z,4.57
2022-09-12T04:05:21.550Z,6.13
2022-09-12T04:10:23.042Z,3.90
2022-09-12T04:15:25.598Z,5.68
2022-09-12T04:20:27.070Z,7.15
2022-09-12T04:25:28.530Z,4.70
2022-09-12T04:30:30.118Z,8.60
2022-09-12T04:35:31.650Z,7.20
2022-09-12T04:40:33.324Z,7.32
2022-09-12T04:45:34.848Z,8.70
2022-09-12T04:50:36.348Z,9.48
2022-09-12T04:55:37.823Z,5.85
2022-09-12T05:00:39.291Z,6.80
2022-09-12T05:05:40.782Z,8.55
2022-09-12T05:10:42.785Z,9.10
2022-09-12T05:15:44.619Z,6.97
2022-09-12T05:20:46.087Z,6.10
2022-09-12T05:25:54.919Z,5.15
2022-09-12T05:31:13.130Z,5.97
2022-09-12T05:36:25.032Z,6.07
2022-09-12T05:41:29.365Z,3.90
2022-09-12T05:46:32.167Z,6.30
2022-09-12T05:51:35.212Z,4.25
2022-09-12T05:56:41.448Z,6.47
2022-09-12T06:01:43.055Z,5.25
2022-09-12T06:06:48.712Z,6.03
2022-09-12T06:11:50.215Z,3.83
2022-09-12T06:16:51.716Z,7.35
2022-09-12T06:21:53.500Z,5.00
2022-09-12T06:26:54.971Z,5.45
2022-09-12T06:31:56.434Z,7.40
2022-09-12T06:36:57.933Z,6.82
2022-09-12T06:41:59.398Z,6.93
2022-09-12T06:47:00.906Z,6.60
2022-09-12T06:52:02.730Z,7.72
2022-09-12T06:57:04.252Z,6.85
2022-09-12T07:02:06.140Z,8.60
2022-09-12T07:07:07.657Z,8.63
2022-09-12T07:12:09.211Z,11.07
2022-09-12T07:17:10.723Z,9.98
2022-09-12T07:22:12.284Z,11.43
2022-09-12T07:27:13.756Z,13.32
2022-09-12T07:32:15.226Z,20.27
2022-09-12T07:37:16.728Z,15.52
2022-09-12T07:42:18.240Z,17.60
2022-09-12T07:47:19.720Z,22.92
2022-09-12T07:52:21.240Z,26.42
2022-09-12T07:57:22.951Z,22.85
2022-09-12T08:02:24.453Z,22.70
2022-09-12T08:07:26.005Z,23.02
2022-09-12T08:12:27.984Z,26.05
2022-09-12T08:17:29.787Z,24.40
2022-09-12T08:22:31.461Z,24.20
2022-09-12T08:27:32.924Z,25.35
2022-09-12T08:32:34.631Z,23.17
2022-09-12T08:37:36.116Z,24.50
2022-09-12T08:42:43.485Z,23.35
2022-09-12T08:47:45.072Z,20.15
2022-09-12T08:52:53.694Z,29.45
2022-09-12T08:57:55.283Z,22.52
2022-09-12T09:03:02.636Z,22.20
2022-09-12T09:08:29.664Z,23.90
2022-09-12T09:14:19.102Z,21.42
2022-09-12T09:19:23.319Z,21.80
2022-09-12T09:24:38.647Z,19.13
2022-09-12T09:29:45.374Z,24.85
2022-09-12T09:34:46.876Z,21.13
2022-09-12T09:39:57.277Z,21.98
2022-09-12T09:45:00.079Z,21.52
2022-09-12T09:50:01.560Z,19.50
2022-09-12T09:55:03.096Z,18.60
2022-09-12T10:00:25.794Z,18.45
2022-09-12T10:05:28.549Z,18.55
2022-09-12T10:10:30.036Z,18.15
2022-09-12T10:15:31.860Z,15.48
2022-09-12T10:20:43.928Z,18.00
2022-09-12T10:25:48.920Z,15.63
2022-09-12T10:30:53.334Z,14.35
2022-09-12T10:35:55.117Z,20.13
2022-09-12T10:46:21.579Z,17.40
2022-09-12T10:51:26.011Z,15.82
2022-09-12T10:56:39.295Z,16.33
2022-09-12T11:01:54.861Z,13.35
2022-09-12T11:07:06.467Z,14.75
2022-09-12T11:12:28.080Z,19.40
2022-09-12T11:17:53.515Z,14.90
2022-09-12T11:23:40.535Z,19.35
2022-09-12T11:29:00.880Z,15.30
2022-09-12T11:34:03.180Z,19.45
2022-09-12T11:39:15.813Z,18.65
2022-09-12T11:44:24.739Z,19.60
2022-09-12T11:49:36.084Z,20.60
2022-09-12T11:54:53.964Z,17.65
2022-09-12T12:00:07.918Z,16.92
2022-09-12T12:05:37.509Z,19.20
2022-09-12T12:10:39.812Z,23.00
2022-09-12T12:15:48.516Z,23.65
2022-09-12T12:20:50.526Z,26.02
2022-09-12T12:25:53.873Z,19.75
2022-09-12T12:30:55.277Z,21.75
2022-09-12T12:35:59.500Z,21.58
2022-09-12T12:41:18.984Z,22.92
2022-09-12T12:46:24.044Z,18.50
2022-09-12T12:51:53.807Z,15.27
2022-09-12T12:57:24.851Z,19.65
2022-09-12T13:02:31.695Z,18.33
2022-09-12T13:07:36.229Z,19.00
2022-09-12T13:12:43.906Z,19.02
2022-09-12T13:17:46.828Z,16.73
2022-09-12T13:22:49.886Z,23.63
2022-09-12T13:28:07.500Z,22.45
2022-09-12T13:33:18.495Z,26.90
2022-09-12T13:38:30.315Z,24.20
2022-09-12T13:43:37.940Z,25.25
2022-09-12T13:48:39.428Z,25.98
2022-09-12T13:53:43.911Z,20.67
2022-09-12T13:58:56.750Z,23.40
2022-09-12T14:04:16.395Z,22.27
2022-09-12T14:09:34.564Z,25.05
2022-09-12T14:14:37.375Z,24.30
2022-09-12T14:19:39.853Z,21.50
2022-09-12T14:24:41.330Z,19.83
2022-09-12T14:29:43.993Z,21.42
2022-09-12T14:35:21.927Z,20.05
2022-09-12T14:40:23.795Z,21.25
2022-09-12T14:45:34.534Z,20.60
2022-09-12T14:50:36.019Z,20.73
2022-09-12T14:55:44.578Z,19.42
2022-09-12T15:01:12.368Z,17.70
2022-09-12T15:06:28.436Z,15.57
2022-09-12T15:11:29.943Z,19.33
2022-09-12T15:16:31.407Z,17.20
2022-09-12T15:21:32.897Z,16.80
2022-09-12T15:26:34.386Z,16.17
2022-09-12T15:31:35.929Z,15.23
2022-09-12T15:36:37.456Z,12.73
2022-09-12T15:41:39.103Z,12.27
2022-09-12T15:46:40.888Z,11.15
2022-09-12T16:01:45.463Z,8.77
2022-09-12T16:06:47.041Z,12.57
2022-09-12T16:11:48.570Z,9.30
2022-09-12T16:16:59.484Z,10.90
2022-09-12T16:22:00.959Z,9.85
2022-09-12T16:27:02.437Z,7.90
2022-09-12T16:32:04.111Z,7.80
2022-09-12T16:37:05.735Z,8.32
2022-09-12T16:42:07.236Z,9.32
2022-09-12T16:47:08.725Z,11.60
2022-09-12T16:52:10.864Z,12.45
2022-09-12T16:57:12.331Z,9.68
2022-09-12T17:02:14.085Z,8.10
2022-09-12T17:07:15.583Z,11.45
2022-09-12T17:12:17.058Z,9.07
2022-09-12T17:17:18.538Z,9.48
2022-09-12T17:22:20.032Z,13.40
2022-09-12T17:27:21.593Z,9.93
2022-09-12T17:32:23.157Z,11.30
2022-09-12T17:37:24.658Z,12.43
2022-09-12T17:42:26.138Z,10.50
2022-09-12T17:47:27.638Z,15.18
2022-09-12T17:52:29.931Z,13.65
2022-09-12T17:57:31.391Z,13.20
2022-09-12T18:02:33.486Z,13.23
2022-09-12T18:07:38.921Z,13.93
2022-09-12T18:12:43.012Z,14.15
2022-09-12T18:17:44.490Z,17.15
2022-09-12T18:22:49.159Z,18.45
2022-09-12T18:27:50.628Z,17.85
2022-09-12T18:32:52.149Z,16.65
2022-09-12T18:37:53.808Z,16.70
2022-09-12T18:42:55.295Z,16.65
2022-09-12T18:47:56.772Z,16.23
2022-09-12T18:52:59.863Z,15.80
2022-09-12T18:58:01.581Z,18.27
2022-09-12T19:03:03.070Z,13.50
2022-09-12T19:08:04.832Z,21.50
2022-09-12T19:13:06.477Z,17.15
2022-09-12T19:18:09.485Z,15.10
2022-09-12T19:23:10.999Z,15.50
2022-09-12T19:28:12.480Z,13.82
2022-09-12T19:33:13.959Z,15.68
2022-09-12T19:38:15.719Z,16.70
2022-09-12T19:43:17.201Z,17.23
2022-09-12T19:48:19.516Z,20.67
2022-09-12T19:53:21.192Z,16.73
2022-09-12T19:58:22.660Z,20.30
2022-09-12T20:03:24.179Z,17.05
2022-09-12T20:08:25.675Z,16.25
2022-09-12T20:13:27.675Z,19.15
2022-09-12T20:18:29.188Z,20.88
2022-09-12T20:23:30.873Z,18.00
2022-09-12T20:28:32.510Z,15.73
2022-09-12T20:33:34.082Z,16.02
2022-09-12T20:38:35.936Z,15.52
2022-09-12T20:48:40.093Z,14.40
2022-09-12T20:53:41.568Z,15.07
2022-09-12T20:58:44.424Z,16.60
2022-09-12T21:03:46.398Z,15.82
2022-09-12T21:08:48.077Z,14.60
2022-09-12T21:13:50.259Z,19.30
2022-09-12T21:18:56.125Z,26.38
2022-09-12T21:24:02.296Z,17.55
2022-09-12T21:29:03.786Z,22.02
2022-09-12T21:34:05.417Z,25.48
2022-09-12T21:39:06.924Z,32.00
2022-09-12T21:44:08.592Z,19.23
2022-09-12T21:49:10.067Z,17.83
2022-09-12T21:54:11.549Z,14.10
2022-09-12T21:59:13.033Z,13.90
2022-09-12T22:04:14.548Z,18.60
2022-09-12T22:09:16.913Z,13.27
2022-09-12T22:14:18.537Z,9.50
2022-09-12T22:19:20.132Z,10.02
2022-09-12T22:24:27.467Z,6.30
2022-09-12T22:29:28.954Z,9.93
2022-09-12T22:34:30.496Z,14.15
2022-09-12T22:39:32.155Z,10.88
2022-09-12T22:44:34.114Z,10.60
2022-09-12T22:49:35.617Z,10.25
2022-09-12T22:54:37.672Z,10.60
2022-09-12T23:04:40.617Z,12.15
2022-09-12T23:09:42.105Z,12.20
2022-09-12T23:14:43.603Z,11.90
2022-09-12T23:19:45.364Z,10.93
2022-09-12T23:24:47.178Z,12.95
2022-09-12T23:29:52.792Z,11.00
2022-09-12T23:34:54.263Z,9.10
2022-09-12T23:39:55.801Z,14.02
2022-09-12T23:44:57.395Z,13.70
2022-09-12T23:49:58.911Z,15.73
2022-09-12T23:55:00.378Z,13.77
